WCOM7: Spring River, Waco, MO

Data processed at Fri Mar 09 2018 23:37


All information presented herein is the property of the government of the United States of America and may be revised or deleted at any time without prior notice.
Dissemination of this information without the expressed written consent of the Public Affairs Office, Tulsa District U.S. Army Corps of Engineers is strictly prohibited.
These data are gathered electronically and, as presented, have not undergone any form of quality control. These data are not guaranteed to be valid or correct.
Go to home page.
Go to station list.

Upstream stations:

Downstream station:
Previous Day
Next Day
Current Day
    
SHEF ID:       WCOM7     Spring River near Waco, MO
STATION TYPE:  

               PRECIP     STAGE  RIV-FLOW  BAT-LOAD
                   in        ft       cfs      volt
              Ccp-Rev   Ccp-Rev   Ccp-Rev   Ccp-Rev
(US/Central)
03/07 00:00      0.00      3.53      1203     12.71
03/07 01:00      0.00      3.54      1210     12.54
03/07 02:00      0.00      3.52      1196     12.65
03/07 03:00      0.00      3.50      1181     12.65
03/07 04:00      0.00      3.49      1174     12.65
03/07 05:00      0.00      3.47      1160     12.65
03/07 06:00      0.00      3.51      1189     12.60
03/07 07:00      0.00      3.49      1174     12.60
03/07 08:00      0.00      3.48      1167     12.71
03/07 09:00      0.00      3.42      1125     14.30
03/07 10:00      0.00      3.46      1153     14.76
03/07 11:00      0.00      3.40      1112     14.65
03/07 12:00      0.00      3.44      1139     14.47
03/07 13:00      0.00      3.46      1153     14.59
03/07 14:00      0.00      3.45      1146     14.47
03/07 15:00      0.00      3.43      1132     14.47
03/07 16:00      0.00      3.39      1105     14.35
03/07 17:00      0.00      3.37      1091     13.59
03/07 18:00      0.00      3.41      1118     13.88
03/07 19:00      0.00      3.43      1132     13.36
03/07 20:00      0.00      3.37      1091     12.95
03/07 21:00      0.00      3.39      1105     12.89
03/07 22:00      0.00      3.39      1105     12.83
03/07 23:00      0.00      3.38      1098     12.77